Currently 77°F in Riverside (Presidential Park), California, USA
77°F
86°F / 63°F
6 mph SW
0.00"
Thursday, August 17, 2017 8:12 PM PDT

Riverside (Presidential Park), California Weather Summary
Last 36 Hours

Temperature Winds Hourly Humidity Dewpoint
Time Report Norm Report Norm Max Gusts Precip. Rpt. Norm Rpt. Norm Pressure
1Thu 08:12 PM  76.5°F  81°F  6 mph SW  4 mph  9 mph  0.00"  35%  42%  46°F  55°F  29.96"
Thu 08:00 PM  77.4°F  82°F  4 mph W  4 mph  10 mph  0.00"  33%  41%  45°F  55°F  29.96"
Thu 07:00 PM  79.7°F  85°F  4 mph W  6 mph  15 mph  0.00"  29%  36%  44°F  54°F  29.94"
Thu 06:00 PM  80.7°F  88°F  10 mph SW  7 mph  17 mph  0.00"  38%  32%  52°F  54°F  29.92"
Thu 05:00 PM  82.5°F  90°F  8 mph W  8 mph  18 mph  0.00"  36%  30%  52°F  53°F  29.92"
Thu 04:00 PM  85.0°F  92°F  8 mph SW  8 mph  18 mph  0.00"  36%  28%  54°F  53°F  29.92"
Thu 03:00 PM  85.8°F  93°F  6 mph SW  8 mph  14 mph  0.00"  35%  28%  54°F  54°F  29.93"
2Thu 02:47 PM  86.5°F  93°F  5 mph SW  8 mph  12 mph  ----  36%  28%  56°F  53°F  29.93"
Thu 02:00 PM  83.8°F  92°F  2 mph W  7 mph  11 mph  0.00"  40%  28%  56°F  54°F  29.95"
Thu 01:00 PM  82.0°F  90°F  4 mph SW  6 mph  10 mph  0.00"  43%  30%  57°F  54°F  29.97"
Thu 12:00 PM  79.5°F  87°F  5 mph W  4 mph  9 mph  0.00"  51%  36%  59°F  56°F  29.99"
Thu 11:00 AM  74.8°F  84°F  3 mph W  3 mph  7 mph  0.00"  59%  42%  59°F  58°F  30.01"
Thu 10:00 AM  71.5°F  79°F  4 mph NW  2 mph  7 mph  0.00"  68%  50%  60°F  59°F  30.01"
Thu 09:00 AM  67.9°F  75°F  2 mph NW  2 mph  7 mph  0.00"  75%  58%  60°F  59°F  30.01"
Thu 08:00 AM  65.0°F  70°F  calm  1 mph  4 mph  0.00"  83%  67%  60°F  58°F  30.01"
Thu 07:00 AM  63.3°F  67°F  calm  1 mph  3 mph  0.00"  84%  70%  58°F  57°F  30.00"
3Thu 06:40 AM  62.9°F  67°F  calm  1 mph  2 mph  ----  83%  70%  58°F  57°F  29.99"
Thu 06:00 AM  63.4°F  67°F  2 mph SE  1 mph  3 mph  0.00"  82%  69%  58°F  56°F  29.98"
Thu 05:00 AM  63.9°F  68°F  1 mph SE  1 mph  3 mph  0.00"  82%  68%  58°F  56°F  29.97"
Thu 04:00 AM  64.5°F  68°F  calm  1 mph  1 mph  0.00"  80%  67%  58°F  57°F  29.96"
Thu 03:00 AM  65.4°F  69°F  calm  1 mph  3 mph  0.00"  78%  65%  58°F  57°F  29.96"
Thu 02:00 AM  66.2°F  70°F  calm  1 mph  3 mph  0.00"  76%  63%  58°F  57°F  29.97"
Thu 01:00 AM  67.3°F  72°F  1 mph W  1 mph  4 mph  0.00"  74%  60%  59°F  57°F  29.97"
Thu 12:00 AM  68.1°F  73°F  calm  1 mph  5 mph  0.00"  73%  57%  59°F  56°F  29.97"
Wed 11:00 PM  68.4°F  75°F  3 mph NW  2 mph  7 mph  0.00"  71%  54%  58°F  56°F  29.96"
Wed 10:00 PM  70.5°F  77°F  3 mph NW  3 mph  7 mph  0.00"  67%  49%  59°F  56°F  29.96"
Wed 09:00 PM  71.4°F  79°F  6 mph SW  3 mph  10 mph  0.00"  64%  45%  58°F  55°F  29.93"
Wed 08:00 PM  73.3°F  82°F  4 mph SW  4 mph  14 mph  0.00"  61%  40%  59°F  55°F  29.91"
Wed 07:00 PM  75.9°F  86°F  10 mph SW  6 mph  16 mph  0.00"  55%  35%  58°F  54°F  29.90"
Wed 06:00 PM  79.4°F  88°F  5 mph SW  7 mph  18 mph  0.00"  49%  32%  58°F  53°F  29.89"
Wed 05:00 PM  81.9°F  90°F  7 mph W  8 mph  15 mph  0.00"  43%  30%  57°F  53°F  29.89"
Wed 04:00 PM  83.2°F  92°F  7 mph W  8 mph  19 mph  0.00"  39%  28%  55°F  53°F  29.89"
Wed 03:00 PM  81.4°F  93°F  2 mph NW  8 mph  13 mph  0.00"  42%  27%  55°F  53°F  29.91"
Wed 02:00 PM  79.9°F  92°F  7 mph NW  7 mph  11 mph  0.00"  45%  28%  56°F  54°F  29.93"
Wed 01:00 PM  79.1°F  91°F  3 mph SE  5 mph  9 mph  0.00"  43%  30%  54°F  54°F  29.95"
Wed 12:00 PM  74.7°F  88°F  5 mph W  4 mph  9 mph  0.00"  50%  35%  54°F  56°F  29.97"
Wed 11:00 AM  71.8°F  84°F  5 mph W  3 mph  13 mph  0.00"  57%  42%  55°F  58°F  29.98"
Wed 10:00 AM  69.6°F  79°F  1 mph W  2 mph  6 mph  0.00"  62%  50%  55°F  59°F  29.99"
Wed 09:00 AM  67.3°F  75°F  2 mph E  2 mph  6 mph  0.00"  68%  58%  56°F  59°F  29.98"

  1. Current weather data. No green row appears if the current weather data is also the high or low for the current day.
  2. High temperature for the current day.
  3. Low temperature for the current day.

The Riverside (Presidential Park), California weather pages are a service of WeatherCurrents.
Copyright ©Thu Aug 17 20:12:58 PDT 2017  WeatherCurrents. All rights reserved. - Submit questions and comments - Privacy Policy

This page automatically refreshes every 10 minutes.